sensor_id;sensor_type;location;lat;lon;timestamp;P1;durP1;ratioP1;P2;durP2;ratioP2
51382;SDS011;37475;43.358;1.248;2023-02-01T00:00:01;12.63;;;7.32;;
51382;SDS011;37475;43.358;1.248;2023-02-01T00:02:28;14.75;;;7.80;;
51382;SDS011;37475;43.358;1.248;2023-02-01T00:04:54;13.70;;;7.70;;
51382;SDS011;37475;43.358;1.248;2023-02-01T00:07:20;17.02;;;9.02;;
51382;SDS011;37475;43.358;1.248;2023-02-01T00:09:46;15.02;;;7.30;;
51382;SDS011;37475;43.358;1.248;2023-02-01T00:12:12;12.70;;;7.20;;
51382;SDS011;37475;43.358;1.248;2023-02-01T00:14:37;20.00;;;11.30;;
51382;SDS011;37475;43.358;1.248;2023-02-01T00:17:07;13.70;;;8.00;;
51382;SDS011;37475;43.358;1.248;2023-02-01T00:19:33;14.57;;;8.15;;
51382;SDS011;37475;43.358;1.248;2023-02-01T00:22:00;14.20;;;8.05;;
51382;SDS011;37475;43.358;1.248;2023-02-01T00:24:26;17.42;;;10.93;;
51382;SDS011;37475;43.358;1.248;2023-02-01T00:26:52;14.10;;;8.15;;
51382;SDS011;37475;43.358;1.248;2023-02-01T00:29:18;14.48;;;8.25;;
51382;SDS011;37475;43.358;1.248;2023-02-01T00:31:45;14.40;;;7.60;;
51382;SDS011;37475;43.358;1.248;2023-02-01T00:34:12;16.33;;;8.40;;
51382;SDS011;37475;43.358;1.248;2023-02-01T00:36:40;19.67;;;10.90;;
51382;SDS011;37475;43.358;1.248;2023-02-01T00:39:07;16.60;;;9.55;;
51382;SDS011;37475;43.358;1.248;2023-02-01T00:41:34;20.08;;;11.90;;
51382;SDS011;37475;43.358;1.248;2023-02-01T00:44:00;17.30;;;9.70;;
51382;SDS011;37475;43.358;1.248;2023-02-01T00:46:27;15.90;;;9.45;;
51382;SDS011;37475;43.358;1.248;2023-02-01T00:48:54;15.82;;;9.23;;
51382;SDS011;37475;43.358;1.248;2023-02-01T00:51:21;12.93;;;7.50;;
51382;SDS011;37475;43.358;1.248;2023-02-01T00:53:50;14.07;;;7.85;;
51382;SDS011;37475;43.358;1.248;2023-02-01T00:56:16;12.57;;;7.85;;
51382;SDS011;37475;43.358;1.248;2023-02-01T00:58:43;12.45;;;7.13;;
51382;SDS011;37475;43.358;1.248;2023-02-01T01:01:10;13.18;;;7.25;;
51382;SDS011;37475;43.358;1.248;2023-02-01T01:03:41;13.00;;;7.47;;
51382;SDS011;37475;43.358;1.248;2023-02-01T01:06:14;11.07;;;6.53;;
51382;SDS011;37475;43.358;1.248;2023-02-01T01:08:42;12.07;;;6.55;;
51382;SDS011;37475;43.358;1.248;2023-02-01T01:11:09;12.23;;;7.68;;
51382;SDS011;37475;43.358;1.248;2023-02-01T01:13:41;17.25;;;10.73;;
51382;SDS011;37475;43.358;1.248;2023-02-01T01:16:08;16.05;;;8.98;;
51382;SDS011;37475;43.358;1.248;2023-02-01T01:18:35;16.70;;;10.10;;
51382;SDS011;37475;43.358;1.248;2023-02-01T01:21:03;14.02;;;8.82;;
51382;SDS011;37475;43.358;1.248;2023-02-01T01:23:31;17.60;;;9.85;;
51382;SDS011;37475;43.358;1.248;2023-02-01T01:25:57;19.20;;;11.70;;
51382;SDS011;37475;43.358;1.248;2023-02-01T01:28:23;15.30;;;9.00;;
51382;SDS011;37475;43.358;1.248;2023-02-01T01:30:49;11.85;;;7.05;;
51382;SDS011;37475;43.358;1.248;2023-02-01T01:33:15;12.50;;;6.57;;
51382;SDS011;37475;43.358;1.248;2023-02-01T01:35:41;12.63;;;6.35;;
51382;SDS011;37475;43.358;1.248;2023-02-01T01:38:08;11.80;;;6.78;;
51382;SDS011;37475;43.358;1.248;2023-02-01T01:40:36;11.70;;;6.40;;
51382;SDS011;37475;43.358;1.248;2023-02-01T01:43:02;14.73;;;7.40;;
51382;SDS011;37475;43.358;1.248;2023-02-01T01:45:29;16.52;;;8.48;;
51382;SDS011;37475;43.358;1.248;2023-02-01T01:48:04;16.58;;;8.80;;
51382;SDS011;37475;43.358;1.248;2023-02-01T01:50:44;15.73;;;7.95;;
51382;SDS011;37475;43.358;1.248;2023-02-01T01:53:20;17.10;;;8.82;;
51382;SDS011;37475;43.358;1.248;2023-02-01T01:58:21;17.10;;;8.57;;
51382;SDS011;37475;43.358;1.248;2023-02-01T02:00:51;16.73;;;9.05;;
51382;SDS011;37475;43.358;1.248;2023-02-01T02:03:20;17.83;;;9.90;;
51382;SDS011;37475;43.358;1.248;2023-02-01T02:05:59;15.98;;;8.65;;
51382;SDS011;37475;43.358;1.248;2023-02-01T02:08:28;13.75;;;7.75;;
51382;SDS011;37475;43.358;1.248;2023-02-01T02:10:55;12.75;;;7.30;;
51382;SDS011;37475;43.358;1.248;2023-02-01T02:18:34;17.30;;;9.40;;
51382;SDS011;37475;43.358;1.248;2023-02-01T02:27:05;14.93;;;9.15;;
51382;SDS011;37475;43.358;1.248;2023-02-01T02:36:14;12.10;;;7.35;;
51382;SDS011;37475;43.358;1.248;2023-02-01T02:48:07;11.73;;;7.65;;
51382;SDS011;37475;43.358;1.248;2023-02-01T02:50:37;13.82;;;7.97;;
51382;SDS011;37475;43.358;1.248;2023-02-01T02:54:31;13.68;;;7.80;;
51382;SDS011;37475;43.358;1.248;2023-02-01T02:57:02;14.52;;;8.32;;
51382;SDS011;37475;43.358;1.248;2023-02-01T02:59:51;11.43;;;7.13;;
51382;SDS011;37475;43.358;1.248;2023-02-01T03:02:36;13.15;;;8.23;;
51382;SDS011;37475;43.358;1.248;2023-02-01T03:05:22;13.43;;;7.68;;
51382;SDS011;37475;43.358;1.248;2023-02-01T03:10:24;13.10;;;7.68;;
51382;SDS011;37475;43.358;1.248;2023-02-01T03:13:22;12.93;;;7.85;;
51382;SDS011;37475;43.358;1.248;2023-02-01T03:24:27;13.30;;;7.60;;
51382;SDS011;37475;43.358;1.248;2023-02-01T03:27:07;13.10;;;7.90;;
51382;SDS011;37475;43.358;1.248;2023-02-01T03:29:59;12.50;;;7.80;;
51382;SDS011;37475;43.358;1.248;2023-02-01T03:32:36;13.85;;;8.05;;
51382;SDS011;37475;43.358;1.248;2023-02-01T03:35:25;13.70;;;7.97;;
51382;SDS011;37475;43.358;1.248;2023-02-01T03:40:47;13.60;;;7.78;;
51382;SDS011;37475;43.358;1.248;2023-02-01T03:43:24;14.55;;;8.15;;
51382;SDS011;37475;43.358;1.248;2023-02-01T03:45:54;13.60;;;8.32;;
51382;SDS011;37475;43.358;1.248;2023-02-01T03:48:26;14.25;;;8.30;;
51382;SDS011;37475;43.358;1.248;2023-02-01T03:50:55;14.40;;;8.65;;
51382;SDS011;37475;43.358;1.248;2023-02-01T03:53:25;13.07;;;8.57;;
51382;SDS011;37475;43.358;1.248;2023-02-01T03:55:53;13.13;;;7.45;;
51382;SDS011;37475;43.358;1.248;2023-02-01T03:58:20;14.50;;;8.40;;
51382;SDS011;37475;43.358;1.248;2023-02-01T04:00:52;13.32;;;8.10;;
51382;SDS011;37475;43.358;1.248;2023-02-01T04:03:23;13.48;;;8.15;;
51382;SDS011;37475;43.358;1.248;2023-02-01T04:05:52;13.85;;;8.48;;
51382;SDS011;37475;43.358;1.248;2023-02-01T04:08:19;14.00;;;8.20;;
51382;SDS011;37475;43.358;1.248;2023-02-01T04:10:46;14.55;;;8.18;;
51382;SDS011;37475;43.358;1.248;2023-02-01T04:13:12;12.95;;;8.27;;
51382;SDS011;37475;43.358;1.248;2023-02-01T04:15:38;13.55;;;8.02;;
51382;SDS011;37475;43.358;1.248;2023-02-01T04:18:04;16.70;;;10.05;;
51382;SDS011;37475;43.358;1.248;2023-02-01T04:20:30;16.40;;;9.73;;
51382;SDS011;37475;43.358;1.248;2023-02-01T04:22:56;16.70;;;9.43;;
51382;SDS011;37475;43.358;1.248;2023-02-01T04:25:22;14.40;;;8.20;;
51382;SDS011;37475;43.358;1.248;2023-02-01T04:27:48;15.30;;;8.63;;
51382;SDS011;37475;43.358;1.248;2023-02-01T04:30:14;15.38;;;9.00;;
51382;SDS011;37475;43.358;1.248;2023-02-01T04:32:40;13.82;;;8.15;;
51382;SDS011;37475;43.358;1.248;2023-02-01T04:35:07;13.15;;;8.15;;
51382;SDS011;37475;43.358;1.248;2023-02-01T04:37:33;16.38;;;8.15;;
51382;SDS011;37475;43.358;1.248;2023-02-01T04:39:59;16.58;;;8.73;;
51382;SDS011;37475;43.358;1.248;2023-02-01T04:42:25;14.43;;;8.63;;
51382;SDS011;37475;43.358;1.248;2023-02-01T04:44:51;14.38;;;8.32;;
51382;SDS011;37475;43.358;1.248;2023-02-01T04:47:17;13.90;;;8.27;;
51382;SDS011;37475;43.358;1.248;2023-02-01T04:49:42;15.15;;;7.90;;
51382;SDS011;37475;43.358;1.248;2023-02-01T04:52:08;12.77;;;7.47;;
51382;SDS011;37475;43.358;1.248;2023-02-01T04:54:34;13.13;;;7.85;;
51382;SDS011;37475;43.358;1.248;2023-02-01T04:57:00;14.30;;;8.73;;
51382;SDS011;37475;43.358;1.248;2023-02-01T04:59:27;15.30;;;8.38;;
51382;SDS011;37475;43.358;1.248;2023-02-01T05:01:53;12.45;;;7.32;;
51382;SDS011;37475;43.358;1.248;2023-02-01T05:04:19;12.68;;;7.10;;
51382;SDS011;37475;43.358;1.248;2023-02-01T05:06:45;15.57;;;8.77;;
51382;SDS011;37475;43.358;1.248;2023-02-01T05:09:11;11.88;;;7.28;;
51382;SDS011;37475;43.358;1.248;2023-02-01T05:11:37;12.63;;;7.50;;
51382;SDS011;37475;43.358;1.248;2023-02-01T05:14:21;11.75;;;7.00;;
51382;SDS011;37475;43.358;1.248;2023-02-01T05:16:47;13.90;;;7.55;;
51382;SDS011;37475;43.358;1.248;2023-02-01T05:19:13;11.77;;;7.18;;
51382;SDS011;37475;43.358;1.248;2023-02-01T05:21:39;11.85;;;6.38;;
51382;SDS011;37475;43.358;1.248;2023-02-01T05:24:05;12.02;;;6.80;;
51382;SDS011;37475;43.358;1.248;2023-02-01T05:26:38;11.50;;;6.27;;
51382;SDS011;37475;43.358;1.248;2023-02-01T05:29:06;10.82;;;6.60;;
51382;SDS011;37475;43.358;1.248;2023-02-01T05:31:32;11.70;;;6.45;;
51382;SDS011;37475;43.358;1.248;2023-02-01T05:33:58;11.60;;;6.40;;
51382;SDS011;37475;43.358;1.248;2023-02-01T05:36:24;11.20;;;6.50;;
51382;SDS011;37475;43.358;1.248;2023-02-01T05:38:50;11.38;;;6.75;;
51382;SDS011;37475;43.358;1.248;2023-02-01T05:41:16;12.57;;;6.63;;
51382;SDS011;37475;43.358;1.248;2023-02-01T05:43:42;10.63;;;6.80;;
51382;SDS011;37475;43.358;1.248;2023-02-01T05:46:08;10.68;;;6.57;;
51382;SDS011;37475;43.358;1.248;2023-02-01T05:48:37;13.13;;;6.50;;
51382;SDS011;37475;43.358;1.248;2023-02-01T05:51:04;12.40;;;6.40;;
51382;SDS011;37475;43.358;1.248;2023-02-01T05:53:30;12.18;;;5.93;;
51382;SDS011;37475;43.358;1.248;2023-02-01T05:55:56;9.77;;;5.80;;
51382;SDS011;37475;43.358;1.248;2023-02-01T05:58:22;10.90;;;5.47;;
51382;SDS011;37475;43.358;1.248;2023-02-01T06:00:48;9.07;;;5.25;;
51382;SDS011;37475;43.358;1.248;2023-02-01T06:03:14;9.80;;;5.57;;
51382;SDS011;37475;43.358;1.248;2023-02-01T06:05:39;11.30;;;5.15;;
51382;SDS011;37475;43.358;1.248;2023-02-01T06:08:05;12.45;;;6.05;;
51382;SDS011;37475;43.358;1.248;2023-02-01T06:10:32;13.32;;;5.55;;
51382;SDS011;37475;43.358;1.248;2023-02-01T06:12:58;12.30;;;6.22;;
51382;SDS011;37475;43.358;1.248;2023-02-01T06:15:24;8.27;;;5.25;;
51382;SDS011;37475;43.358;1.248;2023-02-01T06:17:50;9.95;;;5.10;;
51382;SDS011;37475;43.358;1.248;2023-02-01T06:20:16;9.75;;;5.25;;
51382;SDS011;37475;43.358;1.248;2023-02-01T06:22:42;9.43;;;4.93;;
51382;SDS011;37475;43.358;1.248;2023-02-01T06:25:08;7.65;;;4.50;;
51382;SDS011;37475;43.358;1.248;2023-02-01T06:27:35;9.00;;;4.85;;
51382;SDS011;37475;43.358;1.248;2023-02-01T06:30:02;8.77;;;4.65;;
51382;SDS011;37475;43.358;1.248;2023-02-01T06:32:29;8.38;;;4.20;;
51382;SDS011;37475;43.358;1.248;2023-02-01T06:34:55;9.27;;;4.40;;
51382;SDS011;37475;43.358;1.248;2023-02-01T06:37:22;7.03;;;4.00;;
51382;SDS011;37475;43.358;1.248;2023-02-01T06:39:49;9.23;;;4.38;;
51382;SDS011;37475;43.358;1.248;2023-02-01T06:42:16;9.63;;;4.38;;
51382;SDS011;37475;43.358;1.248;2023-02-01T06:44:42;10.23;;;4.47;;
51382;SDS011;37475;43.358;1.248;2023-02-01T06:47:08;14.23;;;5.00;;
51382;SDS011;37475;43.358;1.248;2023-02-01T06:49:34;14.98;;;4.97;;
51382;SDS011;37475;43.358;1.248;2023-02-01T06:52:01;14.52;;;5.30;;
51382;SDS011;37475;43.358;1.248;2023-02-01T06:54:27;10.32;;;5.22;;
51382;SDS011;37475;43.358;1.248;2023-02-01T06:56:54;11.77;;;5.32;;
51382;SDS011;37475;43.358;1.248;2023-02-01T06:59:20;13.93;;;5.93;;
51382;SDS011;37475;43.358;1.248;2023-02-01T07:01:46;11.80;;;5.55;;
51382;SDS011;37475;43.358;1.248;2023-02-01T07:04:12;13.15;;;6.10;;
51382;SDS011;37475;43.358;1.248;2023-02-01T07:06:38;15.23;;;6.90;;
51382;SDS011;37475;43.358;1.248;2023-02-01T07:09:05;15.88;;;6.70;;
51382;SDS011;37475;43.358;1.248;2023-02-01T07:11:31;9.85;;;5.25;;
51382;SDS011;37475;43.358;1.248;2023-02-01T07:13:57;10.88;;;6.10;;
51382;SDS011;37475;43.358;1.248;2023-02-01T07:16:23;13.00;;;5.90;;
51382;SDS011;37475;43.358;1.248;2023-02-01T07:18:50;11.38;;;5.53;;
51382;SDS011;37475;43.358;1.248;2023-02-01T07:21:17;12.50;;;6.00;;
51382;SDS011;37475;43.358;1.248;2023-02-01T07:23:44;9.98;;;5.45;;
51382;SDS011;37475;43.358;1.248;2023-02-01T07:26:11;9.38;;;5.50;;
51382;SDS011;37475;43.358;1.248;2023-02-01T07:28:39;12.68;;;5.97;;
51382;SDS011;37475;43.358;1.248;2023-02-01T07:31:10;14.05;;;6.00;;
51382;SDS011;37475;43.358;1.248;2023-02-01T07:33:41;11.13;;;6.40;;
51382;SDS011;37475;43.358;1.248;2023-02-01T07:36:07;10.55;;;5.72;;
51382;SDS011;37475;43.358;1.248;2023-02-01T07:38:41;12.10;;;6.25;;
51382;SDS011;37475;43.358;1.248;2023-02-01T07:41:07;14.07;;;6.63;;
51382;SDS011;37475;43.358;1.248;2023-02-01T07:43:34;12.80;;;7.00;;
51382;SDS011;37475;43.358;1.248;2023-02-01T07:46:00;13.07;;;7.18;;
51382;SDS011;37475;43.358;1.248;2023-02-01T07:48:28;13.73;;;7.97;;
51382;SDS011;37475;43.358;1.248;2023-02-01T07:53:33;15.27;;;8.68;;
51382;SDS011;37475;43.358;1.248;2023-02-01T07:55:59;16.00;;;8.02;;
51382;SDS011;37475;43.358;1.248;2023-02-01T07:58:26;17.27;;;8.50;;
51382;SDS011;37475;43.358;1.248;2023-02-01T08:00:53;13.93;;;8.80;;
51382;SDS011;37475;43.358;1.248;2023-02-01T08:03:38;16.77;;;8.73;;
51382;SDS011;37475;43.358;1.248;2023-02-01T08:06:05;24.85;;;11.68;;
51382;SDS011;37475;43.358;1.248;2023-02-01T08:08:31;21.50;;;10.25;;
51382;SDS011;37475;43.358;1.248;2023-02-01T08:11:02;38.80;;;23.15;;
51382;SDS011;37475;43.358;1.248;2023-02-01T08:13:30;63.83;;;36.45;;
51382;SDS011;37475;43.358;1.248;2023-02-01T08:16:07;78.35;;;43.42;;
51382;SDS011;37475;43.358;1.248;2023-02-01T08:18:36;78.22;;;43.75;;
51382;SDS011;37475;43.358;1.248;2023-02-01T08:21:04;65.78;;;38.47;;
51382;SDS011;37475;43.358;1.248;2023-02-01T08:23:30;26.58;;;15.93;;
51382;SDS011;37475;43.358;1.248;2023-02-01T08:26:16;19.30;;;11.48;;
51382;SDS011;37475;43.358;1.248;2023-02-01T08:28:58;47.67;;;25.40;;
51382;SDS011;37475;43.358;1.248;2023-02-01T08:31:26;17.08;;;10.18;;
51382;SDS011;37475;43.358;1.248;2023-02-01T08:33:55;24.52;;;14.18;;
51382;SDS011;37475;43.358;1.248;2023-02-01T08:36:24;24.25;;;14.90;;
51382;SDS011;37475;43.358;1.248;2023-02-01T08:38:52;23.17;;;12.52;;
51382;SDS011;37475;43.358;1.248;2023-02-01T08:41:19;13.75;;;7.78;;
51382;SDS011;37475;43.358;1.248;2023-02-01T08:43:48;14.70;;;7.78;;
51382;SDS011;37475;43.358;1.248;2023-02-01T08:46:14;9.93;;;6.30;;
51382;SDS011;37475;43.358;1.248;2023-02-01T08:48:41;13.75;;;6.53;;
51382;SDS011;37475;43.358;1.248;2023-02-01T08:51:08;11.52;;;5.75;;
51382;SDS011;37475;43.358;1.248;2023-02-01T08:53:38;11.82;;;6.00;;
51382;SDS011;37475;43.358;1.248;2023-02-01T08:56:08;9.80;;;5.32;;
51382;SDS011;37475;43.358;1.248;2023-02-01T08:58:36;9.05;;;4.95;;
51382;SDS011;37475;43.358;1.248;2023-02-01T09:01:06;7.15;;;3.83;;
51382;SDS011;37475;43.358;1.248;2023-02-01T09:03:38;9.63;;;4.35;;
51382;SDS011;37475;43.358;1.248;2023-02-01T09:06:05;8.73;;;3.80;;
51382;SDS011;37475;43.358;1.248;2023-02-01T09:08:35;13.88;;;6.55;;
51382;SDS011;37475;43.358;1.248;2023-02-01T09:11:04;14.55;;;7.28;;
51382;SDS011;37475;43.358;1.248;2023-02-01T09:13:32;10.02;;;4.32;;
51382;SDS011;37475;43.358;1.248;2023-02-01T09:15:59;8.63;;;3.85;;
51382;SDS011;37475;43.358;1.248;2023-02-01T09:18:25;7.03;;;3.33;;
51382;SDS011;37475;43.358;1.248;2023-02-01T09:20:51;5.97;;;3.42;;
51382;SDS011;37475;43.358;1.248;2023-02-01T09:23:17;7.72;;;3.75;;
51382;SDS011;37475;43.358;1.248;2023-02-01T09:25:45;6.55;;;3.15;;
51382;SDS011;37475;43.358;1.248;2023-02-01T09:28:15;8.20;;;3.92;;
51382;SDS011;37475;43.358;1.248;2023-02-01T09:30:41;6.70;;;3.20;;
51382;SDS011;37475;43.358;1.248;2023-02-01T09:33:07;6.43;;;3.58;;
51382;SDS011;37475;43.358;1.248;2023-02-01T09:35:33;6.07;;;2.88;;
51382;SDS011;37475;43.358;1.248;2023-02-01T09:37:59;7.72;;;3.45;;
51382;SDS011;37475;43.358;1.248;2023-02-01T09:40:24;6.35;;;3.50;;
51382;SDS011;37475;43.358;1.248;2023-02-01T09:48:32;7.57;;;2.85;;
51382;SDS011;37475;43.358;1.248;2023-02-01T09:51:04;6.78;;;3.30;;
51382;SDS011;37475;43.358;1.248;2023-02-01T09:53:41;6.03;;;3.10;;
51382;SDS011;37475;43.358;1.248;2023-02-01T09:56:13;9.38;;;3.70;;
51382;SDS011;37475;43.358;1.248;2023-02-01T09:58:47;6.03;;;3.40;;
51382;SDS011;37475;43.358;1.248;2023-02-01T10:01:47;5.95;;;3.08;;
51382;SDS011;37475;43.358;1.248;2023-02-01T10:04:13;10.05;;;3.10;;
51382;SDS011;37475;43.358;1.248;2023-02-01T10:09:42;6.32;;;2.33;;
51382;SDS011;37475;43.358;1.248;2023-02-01T10:15:35;8.55;;;3.17;;
51382;SDS011;37475;43.358;1.248;2023-02-01T10:30:05;7.13;;;1.88;;
51382;SDS011;37475;43.358;1.248;2023-02-01T10:33:07;8.15;;;2.00;;
51382;SDS011;37475;43.358;1.248;2023-02-01T10:35:45;6.05;;;1.73;;
51382;SDS011;37475;43.358;1.248;2023-02-01T10:38:16;8.57;;;2.10;;
51382;SDS011;37475;43.358;1.248;2023-02-01T10:40:55;8.07;;;2.03;;
51382;SDS011;37475;43.358;1.248;2023-02-01T10:43:28;3.78;;;1.55;;
51382;SDS011;37475;43.358;1.248;2023-02-01T10:45:54;9.00;;;1.80;;
51382;SDS011;37475;43.358;1.248;2023-02-01T10:48:20;6.03;;;1.60;;
51382;SDS011;37475;43.358;1.248;2023-02-01T10:50:48;5.85;;;1.80;;
51382;SDS011;37475;43.358;1.248;2023-02-01T10:56:21;5.15;;;1.60;;
51382;SDS011;37475;43.358;1.248;2023-02-01T10:58:59;5.05;;;1.40;;
51382;SDS011;37475;43.358;1.248;2023-02-01T11:01:34;5.05;;;1.33;;
51382;SDS011;37475;43.358;1.248;2023-02-01T11:04:09;6.80;;;1.70;;
51382;SDS011;37475;43.358;1.248;2023-02-01T11:06:39;5.28;;;1.30;;
51382;SDS011;37475;43.358;1.248;2023-02-01T11:11:49;9.15;;;1.83;;
51382;SDS011;37475;43.358;1.248;2023-02-01T11:14:41;5.55;;;1.63;;
51382;SDS011;37475;43.358;1.248;2023-02-01T11:19:56;6.35;;;1.80;;
51382;SDS011;37475;43.358;1.248;2023-02-01T11:22:29;9.88;;;2.03;;
51382;SDS011;37475;43.358;1.248;2023-02-01T11:24:56;4.30;;;1.75;;
51382;SDS011;37475;43.358;1.248;2023-02-01T11:27:24;5.32;;;1.98;;
51382;SDS011;37475;43.358;1.248;2023-02-01T11:29:52;6.50;;;2.10;;
51382;SDS011;37475;43.358;1.248;2023-02-01T11:32:25;6.40;;;1.70;;
51382;SDS011;37475;43.358;1.248;2023-02-01T11:34:53;8.07;;;2.00;;
51382;SDS011;37475;43.358;1.248;2023-02-01T11:39:56;4.80;;;1.55;;
51382;SDS011;37475;43.358;1.248;2023-02-01T11:42:28;11.55;;;4.30;;
51382;SDS011;37475;43.358;1.248;2023-02-01T11:45:37;4.95;;;2.00;;
51382;SDS011;37475;43.358;1.248;2023-02-01T11:47:53;11.57;;;5.40;;
51382;SDS011;37475;43.358;1.248;2023-02-01T11:50:35;9.48;;;4.82;;
51382;SDS011;37475;43.358;1.248;2023-02-01T11:53:52;10.23;;;4.75;;
51382;SDS011;37475;43.358;1.248;2023-02-01T11:56:40;5.67;;;1.73;;
51382;SDS011;37475;43.358;1.248;2023-02-01T12:02:30;7.82;;;3.30;;
51382;SDS011;37475;43.358;1.248;2023-02-01T12:14:36;7.28;;;2.00;;
51382;SDS011;37475;43.358;1.248;2023-02-01T12:29:29;5.60;;;1.83;;
51382;SDS011;37475;43.358;1.248;2023-02-01T12:41:07;6.30;;;2.03;;
51382;SDS011;37475;43.358;1.248;2023-02-01T12:44:10;5.53;;;1.80;;
51382;SDS011;37475;43.358;1.248;2023-02-01T12:47:18;8.65;;;5.43;;
51382;SDS011;37475;43.358;1.248;2023-02-01T12:50:53;6.03;;;2.20;;
51382;SDS011;37475;43.358;1.248;2023-02-01T12:56:15;3.75;;;1.27;;
51382;SDS011;37475;43.358;1.248;2023-02-01T12:59:25;2.42;;;1.17;;
51382;SDS011;37475;43.358;1.248;2023-02-01T13:05:17;3.83;;;1.30;;
51382;SDS011;37475;43.358;1.248;2023-02-01T13:15:51;2.90;;;1.15;;
51382;SDS011;37475;43.358;1.248;2023-02-01T13:18:46;4.65;;;1.48;;
51382;SDS011;37475;43.358;1.248;2023-02-01T13:21:24;3.40;;;1.27;;
51382;SDS011;37475;43.358;1.248;2023-02-01T13:23:54;4.60;;;1.20;;
51382;SDS011;37475;43.358;1.248;2023-02-01T13:26:20;3.58;;;1.20;;
51382;SDS011;37475;43.358;1.248;2023-02-01T13:31:29;2.22;;;0.90;;
51382;SDS011;37475;43.358;1.248;2023-02-01T13:41:25;3.17;;;1.05;;
51382;SDS011;37475;43.358;1.248;2023-02-01T13:43:58;4.60;;;1.17;;
51382;SDS011;37475;43.358;1.248;2023-02-01T13:46:30;3.75;;;1.40;;
51382;SDS011;37475;43.358;1.248;2023-02-01T13:49:13;2.83;;;1.02;;
51382;SDS011;37475;43.358;1.248;2023-02-01T13:51:48;2.88;;;1.20;;
51382;SDS011;37475;43.358;1.248;2023-02-01T13:54:37;3.53;;;1.00;;
51382;SDS011;37475;43.358;1.248;2023-02-01T13:57:06;5.45;;;1.10;;
51382;SDS011;37475;43.358;1.248;2023-02-01T14:00:06;4.72;;;1.83;;
51382;SDS011;37475;43.358;1.248;2023-02-01T14:05:04;3.80;;;1.52;;
51382;SDS011;37475;43.358;1.248;2023-02-01T14:07:35;3.00;;;1.70;;
51382;SDS011;37475;43.358;1.248;2023-02-01T14:37:08;2.85;;;1.30;;
51382;SDS011;37475;43.358;1.248;2023-02-01T14:39:54;4.00;;;1.25;;
51382;SDS011;37475;43.358;1.248;2023-02-01T14:42:43;5.80;;;2.00;;
51382;SDS011;37475;43.358;1.248;2023-02-01T14:55:42;5.00;;;2.75;;
51382;SDS011;37475;43.358;1.248;2023-02-01T15:01:27;4.45;;;1.42;;
51382;SDS011;37475;43.358;1.248;2023-02-01T15:04:12;4.25;;;1.80;;
51382;SDS011;37475;43.358;1.248;2023-02-01T15:09:33;5.28;;;1.70;;
51382;SDS011;37475;43.358;1.248;2023-02-01T15:17:21;5.85;;;1.27;;
51382;SDS011;37475;43.358;1.248;2023-02-01T15:19:59;4.22;;;1.00;;
51382;SDS011;37475;43.358;1.248;2023-02-01T15:22:30;3.90;;;1.30;;
51382;SDS011;37475;43.358;1.248;2023-02-01T15:24:57;2.50;;;1.50;;
51382;SDS011;37475;43.358;1.248;2023-02-01T15:27:25;4.70;;;1.98;;
51382;SDS011;37475;43.358;1.248;2023-02-01T15:29:53;3.50;;;0.82;;
51382;SDS011;37475;43.358;1.248;2023-02-01T15:32:32;5.25;;;2.13;;
51382;SDS011;37475;43.358;1.248;2023-02-01T15:35:04;3.17;;;1.33;;
51382;SDS011;37475;43.358;1.248;2023-02-01T15:37:31;5.10;;;1.10;;
51382;SDS011;37475;43.358;1.248;2023-02-01T15:42:40;3.88;;;1.80;;
51382;SDS011;37475;43.358;1.248;2023-02-01T15:45:27;5.75;;;2.50;;
51382;SDS011;37475;43.358;1.248;2023-02-01T15:47:57;3.30;;;1.38;;
51382;SDS011;37475;43.358;1.248;2023-02-01T15:50:24;2.65;;;1.30;;
51382;SDS011;37475;43.358;1.248;2023-02-01T15:52:57;4.15;;;1.60;;
51382;SDS011;37475;43.358;1.248;2023-02-01T15:58:06;5.70;;;2.45;;
51382;SDS011;37475;43.358;1.248;2023-02-01T16:01:00;4.07;;;1.83;;
51382;SDS011;37475;43.358;1.248;2023-02-01T16:06:10;7.05;;;2.80;;
51382;SDS011;37475;43.358;1.248;2023-02-01T16:09:00;8.07;;;3.55;;
51382;SDS011;37475;43.358;1.248;2023-02-01T16:11:40;3.70;;;1.80;;
51382;SDS011;37475;43.358;1.248;2023-02-01T16:14:14;5.90;;;2.80;;
51382;SDS011;37475;43.358;1.248;2023-02-01T16:16:40;4.60;;;1.63;;
51382;SDS011;37475;43.358;1.248;2023-02-01T16:19:06;5.22;;;1.67;;
51382;SDS011;37475;43.358;1.248;2023-02-01T16:21:32;3.13;;;1.40;;
51382;SDS011;37475;43.358;1.248;2023-02-01T16:23:58;3.83;;;1.30;;
51382;SDS011;37475;43.358;1.248;2023-02-01T16:26:28;3.65;;;1.50;;
51382;SDS011;37475;43.358;1.248;2023-02-01T16:28:56;5.63;;;1.90;;
51382;SDS011;37475;43.358;1.248;2023-02-01T16:31:26;14.88;;;6.60;;
51382;SDS011;37475;43.358;1.248;2023-02-01T16:33:54;5.55;;;2.03;;
51382;SDS011;37475;43.358;1.248;2023-02-01T16:36:20;3.95;;;1.65;;
51382;SDS011;37475;43.358;1.248;2023-02-01T16:38:47;7.30;;;3.80;;
51382;SDS011;37475;43.358;1.248;2023-02-01T16:41:15;4.45;;;1.70;;
51382;SDS011;37475;43.358;1.248;2023-02-01T16:43:45;42.05;;;24.85;;
51382;SDS011;37475;43.358;1.248;2023-02-01T16:46:17;22.63;;;12.70;;
51382;SDS011;37475;43.358;1.248;2023-02-01T16:48:56;13.93;;;6.38;;
51382;SDS011;37475;43.358;1.248;2023-02-01T16:51:25;36.67;;;22.52;;
51382;SDS011;37475;43.358;1.248;2023-02-01T16:53:57;5.95;;;3.80;;
51382;SDS011;37475;43.358;1.248;2023-02-01T16:56:33;34.83;;;20.30;;
51382;SDS011;37475;43.358;1.248;2023-02-01T16:59:00;60.50;;;36.03;;
51382;SDS011;37475;43.358;1.248;2023-02-01T17:01:27;61.65;;;36.92;;
51382;SDS011;37475;43.358;1.248;2023-02-01T17:03:52;28.40;;;17.42;;
51382;SDS011;37475;43.358;1.248;2023-02-01T17:06:19;37.25;;;22.88;;
51382;SDS011;37475;43.358;1.248;2023-02-01T17:08:53;26.90;;;15.57;;
51382;SDS011;37475;43.358;1.248;2023-02-01T17:11:24;22.15;;;12.57;;
51382;SDS011;37475;43.358;1.248;2023-02-01T17:13:52;12.25;;;7.03;;
51382;SDS011;37475;43.358;1.248;2023-02-01T17:18:44;13.80;;;7.95;;
51382;SDS011;37475;43.358;1.248;2023-02-01T17:21:17;12.18;;;5.75;;
51382;SDS011;37475;43.358;1.248;2023-02-01T17:23:43;25.90;;;14.35;;
51382;SDS011;37475;43.358;1.248;2023-02-01T17:26:10;23.40;;;13.90;;
51382;SDS011;37475;43.358;1.248;2023-02-01T17:28:36;10.15;;;5.13;;
51382;SDS011;37475;43.358;1.248;2023-02-01T17:31:02;53.15;;;21.85;;
51382;SDS011;37475;43.358;1.248;2023-02-01T17:33:29;54.63;;;23.10;;
51382;SDS011;37475;43.358;1.248;2023-02-01T17:35:59;26.13;;;11.88;;
51382;SDS011;37475;43.358;1.248;2023-02-01T17:38:25;11.98;;;5.40;;
51382;SDS011;37475;43.358;1.248;2023-02-01T17:40:52;8.50;;;5.00;;
51382;SDS011;37475;43.358;1.248;2023-02-01T17:43:20;10.95;;;4.70;;
51382;SDS011;37475;43.358;1.248;2023-02-01T17:45:49;12.70;;;6.38;;
51382;SDS011;37475;43.358;1.248;2023-02-01T17:48:19;15.23;;;7.88;;
51382;SDS011;37475;43.358;1.248;2023-02-01T17:50:47;14.70;;;6.68;;
51382;SDS011;37475;43.358;1.248;2023-02-01T17:53:18;18.42;;;7.40;;
51382;SDS011;37475;43.358;1.248;2023-02-01T17:55:48;15.38;;;6.38;;
51382;SDS011;37475;43.358;1.248;2023-02-01T17:58:15;11.50;;;5.72;;
51382;SDS011;37475;43.358;1.248;2023-02-01T18:00:43;13.55;;;6.30;;
51382;SDS011;37475;43.358;1.248;2023-02-01T18:03:17;14.43;;;6.47;;
51382;SDS011;37475;43.358;1.248;2023-02-01T18:05:53;12.23;;;6.47;;
51382;SDS011;37475;43.358;1.248;2023-02-01T18:08:21;15.05;;;8.45;;
51382;SDS011;37475;43.358;1.248;2023-02-01T18:10:54;19.30;;;10.10;;
51382;SDS011;37475;43.358;1.248;2023-02-01T18:13:29;16.27;;;8.10;;
51382;SDS011;37475;43.358;1.248;2023-02-01T18:15:56;20.00;;;9.07;;
51382;SDS011;37475;43.358;1.248;2023-02-01T18:18:24;26.13;;;12.65;;
51382;SDS011;37475;43.358;1.248;2023-02-01T18:20:50;24.00;;;11.73;;